sensor_id;sensor_type;location;lat;lon;timestamp;temperature;humidity
13944;DHT22;7044;53.286;8.534;2023-05-09T00:01:26;13.60;99.90
13944;DHT22;7044;53.286;8.534;2023-05-09T00:03:56;13.60;99.90
13944;DHT22;7044;53.286;8.534;2023-05-09T00:06:23;13.50;99.90
13944;DHT22;7044;53.286;8.534;2023-05-09T00:08:51;13.50;99.90
13944;DHT22;7044;53.286;8.534;2023-05-09T00:11:18;13.60;99.90
13944;DHT22;7044;53.286;8.534;2023-05-09T00:13:46;13.50;99.90
13944;DHT22;7044;53.286;8.534;2023-05-09T00:16:13;13.50;99.90
13944;DHT22;7044;53.286;8.534;2023-05-09T00:18:40;13.40;99.90
13944;DHT22;7044;53.286;8.534;2023-05-09T00:21:07;13.50;99.90
13944;DHT22;7044;53.286;8.534;2023-05-09T00:23:35;13.50;99.90
13944;DHT22;7044;53.286;8.534;2023-05-09T00:26:02;13.50;99.90
13944;DHT22;7044;53.286;8.534;2023-05-09T00:28:29;13.40;99.90
13944;DHT22;7044;53.286;8.534;2023-05-09T00:30:58;13.40;99.90
13944;DHT22;7044;53.286;8.534;2023-05-09T00:33:24;13.40;99.90
13944;DHT22;7044;53.286;8.534;2023-05-09T00:35:52;13.30;99.90
13944;DHT22;7044;53.286;8.534;2023-05-09T00:38:18;13.30;99.90
13944;DHT22;7044;53.286;8.534;2023-05-09T00:40:45;13.20;99.90
13944;DHT22;7044;53.286;8.534;2023-05-09T00:43:12;13.20;99.90
13944;DHT22;7044;53.286;8.534;2023-05-09T00:45:39;13.10;99.90
13944;DHT22;7044;53.286;8.534;2023-05-09T00:48:07;13.20;99.90
13944;DHT22;7044;53.286;8.534;2023-05-09T00:50:35;13.10;99.90
13944;DHT22;7044;53.286;8.534;2023-05-09T00:53:02;13.20;99.90
13944;DHT22;7044;53.286;8.534;2023-05-09T00:55:29;13.20;99.90
13944;DHT22;7044;53.286;8.534;2023-05-09T00:57:56;13.10;99.90
13944;DHT22;7044;53.286;8.534;2023-05-09T01:00:22;13.10;99.90
13944;DHT22;7044;53.286;8.534;2023-05-09T01:02:51;13.00;99.90
13944;DHT22;7044;53.286;8.534;2023-05-09T01:05:21;13.00;99.90
13944;DHT22;7044;53.286;8.534;2023-05-09T01:07:56;13.00;99.90
13944;DHT22;7044;53.286;8.534;2023-05-09T01:10:30;13.00;99.90
13944;DHT22;7044;53.286;8.534;2023-05-09T01:13:04;13.00;99.90
13944;DHT22;7044;53.286;8.534;2023-05-09T01:15:40;13.00;99.90
13944;DHT22;7044;53.286;8.534;2023-05-09T01:18:15;12.90;99.90
13944;DHT22;7044;53.286;8.534;2023-05-09T01:20:48;12.90;99.90
13944;DHT22;7044;53.286;8.534;2023-05-09T01:23:45;12.90;99.90
13944;DHT22;7044;53.286;8.534;2023-05-09T01:26:19;12.90;99.90
13944;DHT22;7044;53.286;8.534;2023-05-09T01:29:33;12.90;99.90
13944;DHT22;7044;53.286;8.534;2023-05-09T01:32:03;12.90;99.90
13944;DHT22;7044;53.286;8.534;2023-05-09T01:34:31;12.80;99.90
13944;DHT22;7044;53.286;8.534;2023-05-09T01:37:00;12.90;99.90
13944;DHT22;7044;53.286;8.534;2023-05-09T01:39:29;12.80;99.90
13944;DHT22;7044;53.286;8.534;2023-05-09T01:42:01;12.80;99.90
13944;DHT22;7044;53.286;8.534;2023-05-09T01:44:33;12.80;99.90
13944;DHT22;7044;53.286;8.534;2023-05-09T01:47:02;12.80;99.90
13944;DHT22;7044;53.286;8.534;2023-05-09T01:49:30;12.80;99.90
13944;DHT22;7044;53.286;8.534;2023-05-09T01:52:00;12.80;99.90
13944;DHT22;7044;53.286;8.534;2023-05-09T01:54:30;12.70;99.90
13944;DHT22;7044;53.286;8.534;2023-05-09T01:56:58;12.70;99.90
13944;DHT22;7044;53.286;8.534;2023-05-09T01:59:26;12.70;99.90
13944;DHT22;7044;53.286;8.534;2023-05-09T02:01:55;12.70;99.90
13944;DHT22;7044;53.286;8.534;2023-05-09T02:04:23;12.70;99.90
13944;DHT22;7044;53.286;8.534;2023-05-09T02:06:50;12.70;99.90
13944;DHT22;7044;53.286;8.534;2023-05-09T02:09:17;12.60;99.90
13944;DHT22;7044;53.286;8.534;2023-05-09T02:11:44;12.60;99.90
13944;DHT22;7044;53.286;8.534;2023-05-09T02:14:12;12.60;99.90
13944;DHT22;7044;53.286;8.534;2023-05-09T02:16:40;12.60;99.90
13944;DHT22;7044;53.286;8.534;2023-05-09T02:19:08;12.60;99.90
13944;DHT22;7044;53.286;8.534;2023-05-09T02:21:35;12.50;99.90
13944;DHT22;7044;53.286;8.534;2023-05-09T02:24:02;12.50;99.90
13944;DHT22;7044;53.286;8.534;2023-05-09T02:26:30;12.50;99.90
13944;DHT22;7044;53.286;8.534;2023-05-09T02:28:57;12.40;99.90
13944;DHT22;7044;53.286;8.534;2023-05-09T02:31:24;12.40;99.90
13944;DHT22;7044;53.286;8.534;2023-05-09T02:33:54;12.50;99.90
13944;DHT22;7044;53.286;8.534;2023-05-09T02:36:23;12.40;99.90
13944;DHT22;7044;53.286;8.534;2023-05-09T02:38:50;12.40;99.90
13944;DHT22;7044;53.286;8.534;2023-05-09T02:41:17;12.40;99.90
13944;DHT22;7044;53.286;8.534;2023-05-09T02:43:43;12.40;99.90
13944;DHT22;7044;53.286;8.534;2023-05-09T02:46:10;12.40;99.90
13944;DHT22;7044;53.286;8.534;2023-05-09T02:48:37;12.40;99.90
13944;DHT22;7044;53.286;8.534;2023-05-09T02:51:04;12.40;99.90
13944;DHT22;7044;53.286;8.534;2023-05-09T02:53:32;12.40;99.90
13944;DHT22;7044;53.286;8.534;2023-05-09T02:55:59;12.40;99.90
13944;DHT22;7044;53.286;8.534;2023-05-09T02:58:25;12.40;99.90
13944;DHT22;7044;53.286;8.534;2023-05-09T03:00:52;12.30;99.90
13944;DHT22;7044;53.286;8.534;2023-05-09T03:03:19;12.40;99.90
13944;DHT22;7044;53.286;8.534;2023-05-09T03:05:46;12.30;99.90
13944;DHT22;7044;53.286;8.534;2023-05-09T03:08:13;12.30;99.90
13944;DHT22;7044;53.286;8.534;2023-05-09T03:10:41;12.20;99.90
13944;DHT22;7044;53.286;8.534;2023-05-09T03:13:08;12.20;99.90
13944;DHT22;7044;53.286;8.534;2023-05-09T03:15:35;12.20;99.90
13944;DHT22;7044;53.286;8.534;2023-05-09T03:18:02;12.10;99.90
13944;DHT22;7044;53.286;8.534;2023-05-09T03:20:29;12.10;99.90
13944;DHT22;7044;53.286;8.534;2023-05-09T03:22:55;12.00;99.90
13944;DHT22;7044;53.286;8.534;2023-05-09T03:25:22;12.10;99.90
13944;DHT22;7044;53.286;8.534;2023-05-09T03:27:52;12.10;99.90
13944;DHT22;7044;53.286;8.534;2023-05-09T03:30:19;12.00;99.90
13944;DHT22;7044;53.286;8.534;2023-05-09T03:32:45;12.00;99.90
13944;DHT22;7044;53.286;8.534;2023-05-09T03:35:12;12.00;99.90
13944;DHT22;7044;53.286;8.534;2023-05-09T03:37:39;12.00;99.90
13944;DHT22;7044;53.286;8.534;2023-05-09T03:40:07;12.00;99.90
13944;DHT22;7044;53.286;8.534;2023-05-09T03:42:34;12.00;99.90
13944;DHT22;7044;53.286;8.534;2023-05-09T03:45:02;11.90;99.90
13944;DHT22;7044;53.286;8.534;2023-05-09T03:47:29;11.90;99.90
13944;DHT22;7044;53.286;8.534;2023-05-09T03:49:56;11.90;99.90
13944;DHT22;7044;53.286;8.534;2023-05-09T03:52:23;11.90;99.90
13944;DHT22;7044;53.286;8.534;2023-05-09T03:54:50;11.90;99.90
13944;DHT22;7044;53.286;8.534;2023-05-09T03:57:16;11.80;99.90
13944;DHT22;7044;53.286;8.534;2023-05-09T03:59:43;11.80;99.90
13944;DHT22;7044;53.286;8.534;2023-05-09T04:02:11;11.80;99.90
13944;DHT22;7044;53.286;8.534;2023-05-09T04:04:38;11.80;99.90
13944;DHT22;7044;53.286;8.534;2023-05-09T04:07:05;11.80;99.90
13944;DHT22;7044;53.286;8.534;2023-05-09T04:09:32;11.80;99.90
13944;DHT22;7044;53.286;8.534;2023-05-09T04:11:58;11.80;99.90
13944;DHT22;7044;53.286;8.534;2023-05-09T04:14:25;11.80;99.90
13944;DHT22;7044;53.286;8.534;2023-05-09T04:16:52;11.80;99.90
13944;DHT22;7044;53.286;8.534;2023-05-09T04:19:20;11.80;99.90
13944;DHT22;7044;53.286;8.534;2023-05-09T04:21:47;11.80;99.90
13944;DHT22;7044;53.286;8.534;2023-05-09T04:24:14;11.80;99.90
13944;DHT22;7044;53.286;8.534;2023-05-09T04:26:40;11.90;99.90
13944;DHT22;7044;53.286;8.534;2023-05-09T04:29:07;11.90;99.90
13944;DHT22;7044;53.286;8.534;2023-05-09T04:31:34;11.90;99.90
13944;DHT22;7044;53.286;8.534;2023-05-09T04:34:01;11.90;99.90
13944;DHT22;7044;53.286;8.534;2023-05-09T04:36:29;12.00;99.90
13944;DHT22;7044;53.286;8.534;2023-05-09T04:38:58;12.00;99.90
13944;DHT22;7044;53.286;8.534;2023-05-09T04:41:25;12.10;99.90
13944;DHT22;7044;53.286;8.534;2023-05-09T04:43:52;12.00;99.90
13944;DHT22;7044;53.286;8.534;2023-05-09T04:46:19;12.00;99.90
13944;DHT22;7044;53.286;8.534;2023-05-09T04:48:45;12.10;99.90
13944;DHT22;7044;53.286;8.534;2023-05-09T04:51:12;12.20;99.90
13944;DHT22;7044;53.286;8.534;2023-05-09T04:53:40;12.20;99.90
13944;DHT22;7044;53.286;8.534;2023-05-09T04:56:07;12.30;99.90
13944;DHT22;7044;53.286;8.534;2023-05-09T04:58:34;12.30;99.90
13944;DHT22;7044;53.286;8.534;2023-05-09T05:01:02;12.30;99.90
13944;DHT22;7044;53.286;8.534;2023-05-09T05:03:29;12.40;99.90
13944;DHT22;7044;53.286;8.534;2023-05-09T05:05:56;12.40;99.90
13944;DHT22;7044;53.286;8.534;2023-05-09T05:08:23;12.40;99.90
13944;DHT22;7044;53.286;8.534;2023-05-09T05:10:51;12.40;99.90
13944;DHT22;7044;53.286;8.534;2023-05-09T05:13:18;12.50;99.90
13944;DHT22;7044;53.286;8.534;2023-05-09T05:15:45;12.50;99.90
13944;DHT22;7044;53.286;8.534;2023-05-09T05:18:12;12.50;99.90
13944;DHT22;7044;53.286;8.534;2023-05-09T05:20:39;12.40;99.90
13944;DHT22;7044;53.286;8.534;2023-05-09T05:23:06;12.50;99.90
13944;DHT22;7044;53.286;8.534;2023-05-09T05:25:33;12.50;99.90
13944;DHT22;7044;53.286;8.534;2023-05-09T05:28:01;12.50;99.90
13944;DHT22;7044;53.286;8.534;2023-05-09T05:30:28;12.60;99.90
13944;DHT22;7044;53.286;8.534;2023-05-09T05:32:55;12.60;99.90
13944;DHT22;7044;53.286;8.534;2023-05-09T05:35:22;12.60;99.90
13944;DHT22;7044;53.286;8.534;2023-05-09T05:37:49;12.70;99.90
13944;DHT22;7044;53.286;8.534;2023-05-09T05:40:16;12.70;99.90
13944;DHT22;7044;53.286;8.534;2023-05-09T05:42:43;12.90;99.90
13944;DHT22;7044;53.286;8.534;2023-05-09T05:45:12;12.90;99.90
13944;DHT22;7044;53.286;8.534;2023-05-09T05:47:39;12.90;99.90
13944;DHT22;7044;53.286;8.534;2023-05-09T05:50:06;13.00;99.90
13944;DHT22;7044;53.286;8.534;2023-05-09T05:52:36;13.00;99.90
13944;DHT22;7044;53.286;8.534;2023-05-09T05:55:03;13.00;99.90
13944;DHT22;7044;53.286;8.534;2023-05-09T05:57:30;13.00;99.90
13944;DHT22;7044;53.286;8.534;2023-05-09T05:59:59;13.10;99.90
13944;DHT22;7044;53.286;8.534;2023-05-09T06:02:27;13.00;99.90
13944;DHT22;7044;53.286;8.534;2023-05-09T06:04:53;13.10;99.90
13944;DHT22;7044;53.286;8.534;2023-05-09T06:07:20;13.10;99.90
13944;DHT22;7044;53.286;8.534;2023-05-09T06:09:47;13.10;99.90
13944;DHT22;7044;53.286;8.534;2023-05-09T06:12:14;13.20;99.90
13944;DHT22;7044;53.286;8.534;2023-05-09T06:14:41;13.20;99.90
13944;DHT22;7044;53.286;8.534;2023-05-09T06:17:08;13.30;99.90
13944;DHT22;7044;53.286;8.534;2023-05-09T06:19:37;13.30;99.90
13944;DHT22;7044;53.286;8.534;2023-05-09T06:22:04;13.40;99.90
13944;DHT22;7044;53.286;8.534;2023-05-09T06:24:31;13.40;99.90
13944;DHT22;7044;53.286;8.534;2023-05-09T06:26:58;13.50;99.90
13944;DHT22;7044;53.286;8.534;2023-05-09T06:29:25;13.50;99.90
13944;DHT22;7044;53.286;8.534;2023-05-09T06:31:52;13.60;99.90
13944;DHT22;7044;53.286;8.534;2023-05-09T06:34:19;13.60;99.90
13944;DHT22;7044;53.286;8.534;2023-05-09T06:36:47;13.70;99.90
13944;DHT22;7044;53.286;8.534;2023-05-09T06:39:14;13.70;99.90
13944;DHT22;7044;53.286;8.534;2023-05-09T06:41:41;13.80;99.90
13944;DHT22;7044;53.286;8.534;2023-05-09T06:44:07;13.90;99.90
13944;DHT22;7044;53.286;8.534;2023-05-09T06:46:35;14.00;99.90
13944;DHT22;7044;53.286;8.534;2023-05-09T06:49:01;14.00;99.90
13944;DHT22;7044;53.286;8.534;2023-05-09T06:51:30;14.10;99.90
13944;DHT22;7044;53.286;8.534;2023-05-09T06:53:58;14.20;99.90
13944;DHT22;7044;53.286;8.534;2023-05-09T06:56:25;14.20;99.90
13944;DHT22;7044;53.286;8.534;2023-05-09T06:58:52;14.30;99.90
13944;DHT22;7044;53.286;8.534;2023-05-09T07:01:19;14.40;99.90
13944;DHT22;7044;53.286;8.534;2023-05-09T07:03:46;14.40;99.90
13944;DHT22;7044;53.286;8.534;2023-05-09T07:06:13;14.50;99.90
13944;DHT22;7044;53.286;8.534;2023-05-09T07:08:40;14.60;99.90
13944;DHT22;7044;53.286;8.534;2023-05-09T07:11:08;14.70;99.90
13944;DHT22;7044;53.286;8.534;2023-05-09T07:13:35;14.80;99.90
13944;DHT22;7044;53.286;8.534;2023-05-09T07:16:02;14.90;99.90
13944;DHT22;7044;53.286;8.534;2023-05-09T07:18:29;15.00;99.90
13944;DHT22;7044;53.286;8.534;2023-05-09T07:20:56;15.00;99.90
13944;DHT22;7044;53.286;8.534;2023-05-09T07:23:23;15.10;99.90
13944;DHT22;7044;53.286;8.534;2023-05-09T07:25:55;15.20;99.90
13944;DHT22;7044;53.286;8.534;2023-05-09T07:28:24;15.20;99.90
13944;DHT22;7044;53.286;8.534;2023-05-09T07:30:51;15.30;99.90
13944;DHT22;7044;53.286;8.534;2023-05-09T07:33:18;15.30;99.90
13944;DHT22;7044;53.286;8.534;2023-05-09T07:35:45;15.30;99.90
13944;DHT22;7044;53.286;8.534;2023-05-09T07:38:12;15.20;99.90
13944;DHT22;7044;53.286;8.534;2023-05-09T07:40:39;15.20;99.90
13944;DHT22;7044;53.286;8.534;2023-05-09T07:43:06;15.20;99.90
13944;DHT22;7044;53.286;8.534;2023-05-09T07:45:34;15.20;99.90
13944;DHT22;7044;53.286;8.534;2023-05-09T07:48:01;15.20;99.90
13944;DHT22;7044;53.286;8.534;2023-05-09T07:50:28;15.30;99.90
13944;DHT22;7044;53.286;8.534;2023-05-09T07:52:55;15.30;99.90
13944;DHT22;7044;53.286;8.534;2023-05-09T07:55:22;15.40;99.90
13944;DHT22;7044;53.286;8.534;2023-05-09T07:57:48;15.50;99.90
13944;DHT22;7044;53.286;8.534;2023-05-09T08:00:16;15.60;99.90
13944;DHT22;7044;53.286;8.534;2023-05-09T08:02:49;15.60;99.90
13944;DHT22;7044;53.286;8.534;2023-05-09T08:05:16;15.70;99.90
13944;DHT22;7044;53.286;8.534;2023-05-09T08:07:43;15.70;99.90
13944;DHT22;7044;53.286;8.534;2023-05-09T08:10:10;15.70;99.90
13944;DHT22;7044;53.286;8.534;2023-05-09T08:12:37;15.80;99.90
13944;DHT22;7044;53.286;8.534;2023-05-09T08:15:05;15.80;99.90
13944;DHT22;7044;53.286;8.534;2023-05-09T08:17:32;15.80;99.90
13944;DHT22;7044;53.286;8.534;2023-05-09T08:20:00;15.80;99.90
13944;DHT22;7044;53.286;8.534;2023-05-09T08:22:30;15.90;99.90
13944;DHT22;7044;53.286;8.534;2023-05-09T08:24:56;16.00;99.90
13944;DHT22;7044;53.286;8.534;2023-05-09T08:27:24;16.00;99.90
13944;DHT22;7044;53.286;8.534;2023-05-09T08:29:51;16.10;99.90
13944;DHT22;7044;53.286;8.534;2023-05-09T08:32:17;16.10;99.90
13944;DHT22;7044;53.286;8.534;2023-05-09T08:34:45;16.20;99.90
13944;DHT22;7044;53.286;8.534;2023-05-09T08:37:13;16.30;99.90
13944;DHT22;7044;53.286;8.534;2023-05-09T08:39:40;16.40;99.90
13944;DHT22;7044;53.286;8.534;2023-05-09T08:42:08;16.50;99.90
13944;DHT22;7044;53.286;8.534;2023-05-09T08:44:35;16.50;99.90
13944;DHT22;7044;53.286;8.534;2023-05-09T08:47:03;16.60;99.90
13944;DHT22;7044;53.286;8.534;2023-05-09T08:49:30;16.70;99.90
13944;DHT22;7044;53.286;8.534;2023-05-09T08:51:58;16.80;99.90
13944;DHT22;7044;53.286;8.534;2023-05-09T08:54:26;16.90;99.90
13944;DHT22;7044;53.286;8.534;2023-05-09T08:56:54;17.00;99.90
13944;DHT22;7044;53.286;8.534;2023-05-09T08:59:22;16.90;99.90
13944;DHT22;7044;53.286;8.534;2023-05-09T09:01:50;16.80;99.90
13944;DHT22;7044;53.286;8.534;2023-05-09T09:04:18;16.90;99.90
13944;DHT22;7044;53.286;8.534;2023-05-09T09:06:46;17.00;99.90
13944;DHT22;7044;53.286;8.534;2023-05-09T09:09:14;17.00;99.90
13944;DHT22;7044;53.286;8.534;2023-05-09T09:11:44;17.20;99.90
13944;DHT22;7044;53.286;8.534;2023-05-09T09:14:14;17.40;99.90
13944;DHT22;7044;53.286;8.534;2023-05-09T09:16:43;17.50;99.90
13944;DHT22;7044;53.286;8.534;2023-05-09T09:19:12;17.60;99.90
13944;DHT22;7044;53.286;8.534;2023-05-09T09:21:40;17.70;99.90
13944;DHT22;7044;53.286;8.534;2023-05-09T09:24:08;17.80;99.90
13944;DHT22;7044;53.286;8.534;2023-05-09T09:26:46;17.90;99.90
13944;DHT22;7044;53.286;8.534;2023-05-09T09:29:13;17.90;99.90
13944;DHT22;7044;53.286;8.534;2023-05-09T09:31:43;18.00;99.90
13944;DHT22;7044;53.286;8.534;2023-05-09T09:34:11;18.10;99.90
13944;DHT22;7044;53.286;8.534;2023-05-09T09:36:39;18.10;99.90
13944;DHT22;7044;53.286;8.534;2023-05-09T09:39:06;18.20;99.90
13944;DHT22;7044;53.286;8.534;2023-05-09T09:41:35;18.20;99.90
13944;DHT22;7044;53.286;8.534;2023-05-09T09:44:10;18.30;99.90
13944;DHT22;7044;53.286;8.534;2023-05-09T09:46:41;18.40;99.90
13944;DHT22;7044;53.286;8.534;2023-05-09T09:49:09;18.40;99.90
13944;DHT22;7044;53.286;8.534;2023-05-09T09:51:36;18.50;99.90
13944;DHT22;7044;53.286;8.534;2023-05-09T09:54:06;18.60;99.90
13944;DHT22;7044;53.286;8.534;2023-05-09T09:56:40;18.70;99.90
13944;DHT22;7044;53.286;8.534;2023-05-09T09:59:10;18.70;99.90
13944;DHT22;7044;53.286;8.534;2023-05-09T10:01:53;18.70;99.90
13944;DHT22;7044;53.286;8.534;2023-05-09T10:04:20;18.70;99.90
13944;DHT22;7044;53.286;8.534;2023-05-09T10:06:51;18.70;99.90
13944;DHT22;7044;53.286;8.534;2023-05-09T10:09:20;18.70;99.90
13944;DHT22;7044;53.286;8.534;2023-05-09T10:11:49;18.60;99.90
13944;DHT22;7044;53.286;8.534;2023-05-09T10:14:18;18.70;99.90
13944;DHT22;7044;53.286;8.534;2023-05-09T10:16:47;18.70;99.90
13944;DHT22;7044;53.286;8.534;2023-05-09T10:19:17;18.70;99.90
13944;DHT22;7044;53.286;8.534;2023-05-09T10:21:47;18.70;99.90
13944;DHT22;7044;53.286;8.534;2023-05-09T10:24:15;18.70;99.90
13944;DHT22;7044;53.286;8.534;2023-05-09T10:26:45;18.80;99.90
13944;DHT22;7044;53.286;8.534;2023-05-09T10:29:15;18.80;99.90
13944;DHT22;7044;53.286;8.534;2023-05-09T10:31:49;18.80;99.90
13944;DHT22;7044;53.286;8.534;2023-05-09T10:34:18;18.70;99.90
13944;DHT22;7044;53.286;8.534;2023-05-09T10:36:46;18.80;99.90
13944;DHT22;7044;53.286;8.534;2023-05-09T10:39:15;18.90;99.90
13944;DHT22;7044;53.286;8.534;2023-05-09T10:41:43;18.90;99.90
13944;DHT22;7044;53.286;8.534;2023-05-09T10:44:09;18.90;99.90
13944;DHT22;7044;53.286;8.534;2023-05-09T10:46:37;19.00;99.90
13944;DHT22;7044;53.286;8.534;2023-05-09T10:49:06;19.10;99.90
13944;DHT22;7044;53.286;8.534;2023-05-09T10:51:33;19.10;99.90
13944;DHT22;7044;53.286;8.534;2023-05-09T10:54:00;19.20;99.90
13944;DHT22;7044;53.286;8.534;2023-05-09T10:56:29;19.20;99.90
13944;DHT22;7044;53.286;8.534;2023-05-09T10:58:57;19.30;99.90
13944;DHT22;7044;53.286;8.534;2023-05-09T11:01:28;19.30;99.90
13944;DHT22;7044;53.286;8.534;2023-05-09T11:03:58;19.40;99.90
13944;DHT22;7044;53.286;8.534;2023-05-09T11:06:46;19.40;99.90
13944;DHT22;7044;53.286;8.534;2023-05-09T11:09:26;19.50;99.90
13944;DHT22;7044;53.286;8.534;2023-05-09T11:11:54;19.50;99.90
13944;DHT22;7044;53.286;8.534;2023-05-09T11:14:29;19.60;99.90
13944;DHT22;7044;53.286;8.534;2023-05-09T11:16:56;19.50;99.90
13944;DHT22;7044;53.286;8.534;2023-05-09T11:19:37;19.50;99.90
13944;DHT22;7044;53.286;8.534;2023-05-09T11:22:13;19.50;99.90
13944;DHT22;7044;53.286;8.534;2023-05-09T11:24:44;19.60;99.90
13944;DHT22;7044;53.286;8.534;2023-05-09T11:27:16;19.60;99.90
13944;DHT22;7044;53.286;8.534;2023-05-09T11:29:47;19.60;99.90
13944;DHT22;7044;53.286;8.534;2023-05-09T11:32:15;19.60;99.90
13944;DHT22;7044;53.286;8.534;2023-05-09T11:34:43;19.60;99.90
13944;DHT22;7044;53.286;8.534;2023-05-09T11:37:14;19.60;99.90
13944;DHT22;7044;53.286;8.534;2023-05-09T11:39:57;19.70;99.90
13944;DHT22;7044;53.286;8.534;2023-05-09T11:42:26;19.80;99.90
13944;DHT22;7044;53.286;8.534;2023-05-09T11:44:53;19.90;99.90
13944;DHT22;7044;53.286;8.534;2023-05-09T11:47:20;19.80;99.90
13944;DHT22;7044;53.286;8.534;2023-05-09T11:49:47;19.80;99.90
13944;DHT22;7044;53.286;8.534;2023-05-09T11:52:17;19.70;99.90
13944;DHT22;7044;53.286;8.534;2023-05-09T11:54:44;19.80;99.90
13944;DHT22;7044;53.286;8.534;2023-05-09T11:57:11;20.00;99.90
13944;DHT22;7044;53.286;8.534;2023-05-09T11:59:42;20.00;99.90
13944;DHT22;7044;53.286;8.534;2023-05-09T12:02:10;20.20;99.90
13944;DHT22;7044;53.286;8.534;2023-05-09T12:04:37;20.30;99.90
13944;DHT22;7044;53.286;8.534;2023-05-09T12:07:04;20.40;99.90
13944;DHT22;7044;53.286;8.534;2023-05-09T12:09:33;20.40;99.90
13944;DHT22;7044;53.286;8.534;2023-05-09T12:12:08;20.40;99.90
13944;DHT22;7044;53.286;8.534;2023-05-09T12:14:37;20.30;99.90
13944;DHT22;7044;53.286;8.534;2023-05-09T12:17:05;20.30;99.90
13944;DHT22;7044;53.286;8.534;2023-05-09T12:19:32;20.30;99.90
13944;DHT22;7044;53.286;8.534;2023-05-09T12:22:00;20.30;99.90
13944;DHT22;7044;53.286;8.534;2023-05-09T12:24:29;20.40;99.90
13944;DHT22;7044;53.286;8.534;2023-05-09T12:26:58;20.50;99.90
13944;DHT22;7044;53.286;8.534;2023-05-09T12:29:26;20.40;99.90
13944;DHT22;7044;53.286;8.534;2023-05-09T12:31:55;20.40;99.90
13944;DHT22;7044;53.286;8.534;2023-05-09T12:34:23;20.40;99.90
13944;DHT22;7044;53.286;8.534;2023-05-09T12:36:50;20.40;99.90
13944;DHT22;7044;53.286;8.534;2023-05-09T12:39:18;20.40;99.90
13944;DHT22;7044;53.286;8.534;2023-05-09T12:41:47;20.60;99.90
13944;DHT22;7044;53.286;8.534;2023-05-09T12:44:20;20.70;99.90
13944;DHT22;7044;53.286;8.534;2023-05-09T12:46:57;20.80;99.90
13944;DHT22;7044;53.286;8.534;2023-05-09T12:49:25;20.80;99.90
13944;DHT22;7044;53.286;8.534;2023-05-09T12:51:53;20.70;99.90
13944;DHT22;7044;53.286;8.534;2023-05-09T12:54:21;20.60;99.90
13944;DHT22;7044;53.286;8.534;2023-05-09T12:56:49;20.50;99.90
13944;DHT22;7044;53.286;8.534;2023-05-09T12:59:22;20.40;99.90
13944;DHT22;7044;53.286;8.534;2023-05-09T13:01:51;20.30;99.90
13944;DHT22;7044;53.286;8.534;2023-05-09T13:04:20;20.30;99.90
13944;DHT22;7044;53.286;8.534;2023-05-09T13:06:48;20.40;99.90
13944;DHT22;7044;53.286;8.534;2023-05-09T13:09:16;20.40;99.90
13944;DHT22;7044;53.286;8.534;2023-05-09T13:11:43;20.40;99.90
13944;DHT22;7044;53.286;8.534;2023-05-09T13:14:11;20.40;99.90
13944;DHT22;7044;53.286;8.534;2023-05-09T13:16:39;20.40;99.90
13944;DHT22;7044;53.286;8.534;2023-05-09T13:19:07;20.40;99.90
13944;DHT22;7044;53.286;8.534;2023-05-09T13:21:34;20.40;99.90
13944;DHT22;7044;53.286;8.534;2023-05-09T13:24:01;20.40;99.90
13944;DHT22;7044;53.286;8.534;2023-05-09T13:26:28;20.40;99.90
13944;DHT22;7044;53.286;8.534;2023-05-09T13:28:55;20.40;99.90
13944;DHT22;7044;53.286;8.534;2023-05-09T13:31:22;20.40;99.90
13944;DHT22;7044;53.286;8.534;2023-05-09T13:33:50;20.40;99.90
13944;DHT22;7044;53.286;8.534;2023-05-09T13:36:17;20.40;99.90
13944;DHT22;7044;53.286;8.534;2023-05-09T13:38:44;20.30;99.90
13944;DHT22;7044;53.286;8.534;2023-05-09T13:41:11;20.40;99.90
13944;DHT22;7044;53.286;8.534;2023-05-09T13:43:44;20.40;99.90
13944;DHT22;7044;53.286;8.534;2023-05-09T13:46:11;20.40;99.90
13944;DHT22;7044;53.286;8.534;2023-05-09T13:48:39;20.50;99.90
13944;DHT22;7044;53.286;8.534;2023-05-09T13:51:07;20.60;99.90
13944;DHT22;7044;53.286;8.534;2023-05-09T13:53:35;20.60;99.90
13944;DHT22;7044;53.286;8.534;2023-05-09T13:56:04;20.50;99.90
13944;DHT22;7044;53.286;8.534;2023-05-09T13:58:31;20.40;99.90
13944;DHT22;7044;53.286;8.534;2023-05-09T14:00:58;20.40;99.90
13944;DHT22;7044;53.286;8.534;2023-05-09T14:03:25;20.40;99.90
13944;DHT22;7044;53.286;8.534;2023-05-09T14:05:52;20.30;99.90
13944;DHT22;7044;53.286;8.534;2023-05-09T14:08:20;20.30;99.90
13944;DHT22;7044;53.286;8.534;2023-05-09T14:10:47;20.30;99.90
13944;DHT22;7044;53.286;8.534;2023-05-09T14:13:14;20.30;99.90
13944;DHT22;7044;53.286;8.534;2023-05-09T14:15:41;20.40;99.90
13944;DHT22;7044;53.286;8.534;2023-05-09T14:18:08;20.40;99.90
13944;DHT22;7044;53.286;8.534;2023-05-09T14:20:35;20.50;99.90
13944;DHT22;7044;53.286;8.534;2023-05-09T14:23:04;20.50;99.90
13944;DHT22;7044;53.286;8.534;2023-05-09T14:25:33;20.40;99.90
13944;DHT22;7044;53.286;8.534;2023-05-09T14:28:00;20.40;99.90
13944;DHT22;7044;53.286;8.534;2023-05-09T14:30:26;20.40;99.90
13944;DHT22;7044;53.286;8.534;2023-05-09T14:32:53;20.30;99.90
13944;DHT22;7044;53.286;8.534;2023-05-09T14:35:20;20.30;99.90
13944;DHT22;7044;53.286;8.534;2023-05-09T14:37:47;20.20;99.90
13944;DHT22;7044;53.286;8.534;2023-05-09T14:40:14;20.20;99.90
13944;DHT22;7044;53.286;8.534;2023-05-09T14:42:43;20.20;99.90
13944;DHT22;7044;53.286;8.534;2023-05-09T14:45:11;20.10;99.90
13944;DHT22;7044;53.286;8.534;2023-05-09T14:47:40;20.00;99.90
13944;DHT22;7044;53.286;8.534;2023-05-09T14:50:07;19.90;99.90
13944;DHT22;7044;53.286;8.534;2023-05-09T14:52:40;19.90;99.90
13944;DHT22;7044;53.286;8.534;2023-05-09T14:55:07;19.90;99.90
13944;DHT22;7044;53.286;8.534;2023-05-09T14:57:34;19.80;99.90
13944;DHT22;7044;53.286;8.534;2023-05-09T15:00:04;19.80;99.90
13944;DHT22;7044;53.286;8.534;2023-05-09T15:02:31;19.80;99.90
13944;DHT22;7044;53.286;8.534;2023-05-09T15:04:58;19.70;99.90
13944;DHT22;7044;53.286;8.534;2023-05-09T15:07:25;19.80;99.90
13944;DHT22;7044;53.286;8.534;2023-05-09T15:09:52;19.80;99.90
13944;DHT22;7044;53.286;8.534;2023-05-09T15:12:19;19.80;99.90
13944;DHT22;7044;53.286;8.534;2023-05-09T15:14:46;19.80;99.90
13944;DHT22;7044;53.286;8.534;2023-05-09T15:17:14;19.80;99.90
13944;DHT22;7044;53.286;8.534;2023-05-09T15:19:41;19.80;99.90
13944;DHT22;7044;53.286;8.534;2023-05-09T15:22:08;19.80;99.90
13944;DHT22;7044;53.286;8.534;2023-05-09T15:24:35;19.90;99.90
13944;DHT22;7044;53.286;8.534;2023-05-09T15:27:02;19.90;99.90
13944;DHT22;7044;53.286;8.534;2023-05-09T15:29:29;19.90;99.90
13944;DHT22;7044;53.286;8.534;2023-05-09T15:31:56;19.90;99.90
13944;DHT22;7044;53.286;8.534;2023-05-09T15:34:24;19.80;99.90
13944;DHT22;7044;53.286;8.534;2023-05-09T15:36:51;19.80;99.90
13944;DHT22;7044;53.286;8.534;2023-05-09T15:39:17;19.80;99.90
13944;DHT22;7044;53.286;8.534;2023-05-09T15:41:44;19.70;99.90
13944;DHT22;7044;53.286;8.534;2023-05-09T15:44:12;19.60;99.90
13944;DHT22;7044;53.286;8.534;2023-05-09T15:46:39;19.60;99.90
13944;DHT22;7044;53.286;8.534;2023-05-09T15:49:06;19.60;99.90
13944;DHT22;7044;53.286;8.534;2023-05-09T15:51:34;19.50;99.90